Time;durP1;ratioP1;P1;durP2;ratioP2;P2;SDS_P1;SDS_P2;PMS_P1;PMS_P2;Temp;Humidity;BMP_temperature;BMP_pressure;BME280_temperature;BME280_humidity;BME280_pressure;Samples;Min_cycle;Max_cycle;Signal;HPM_P1;HPM_P2
2019/08/04 00:00:27;;;;;;;9.450001;8.6;;;;;;;13.77;100;95320.67;;;;
2019/08/04 00:01:30;;;;;;;9.649999;8.649999;;;;;;;13.83;100;95332;;;;
2019/08/04 00:02:31;;;;;;;9.649999;8.649999;;;;;;;13.83;100;95332;;;;
2019/08/04 00:03:32;;;;;;;9.649999;8.649999;;;;;;;13.83;100;95332;;;;
2019/08/04 00:04:33;;;;;;;9.649999;8.649999;;;;;;;13.83;100;95332;;;;
2019/08/04 00:05:34;;;;;;;9.649999;8.649999;;;;;;;13.83;100;95332;;;;
2019/08/04 00:06:35;;;;;;;9.649999;8.649999;;;;;;;13.83;100;95332;;;;
2019/08/04 00:07:36;;;;;;;9.649999;8.649999;;;;;;;13.83;100;95332;;;;
2019/08/04 00:08:37;;;;;;;9.649999;8.649999;;;;;;;13.83;100;95332;;;;
2019/08/04 00:09:39;;;;;;;9.649999;8.649999;;;;;;;13.83;100;95332;;;;
2019/08/04 00:10:40;;;;;;;9.649999;8.649999;;;;;;;13.83;100;95332;;;;
2019/08/04 00:11:41;;;;;;;11.35;8.950001;;;;;;;13.78;100;95321.89;;;;
2019/08/04 00:12:42;;;;;;;11.35;8.950001;;;;;;;13.78;100;95321.89;;;;
2019/08/04 00:13:43;;;;;;;11.35;8.950001;;;;;;;13.78;100;95321.89;;;;
2019/08/04 00:14:44;;;;;;;11.35;8.950001;;;;;;;13.78;100;95321.89;;;;
2019/08/04 00:15:45;;;;;;;11.35;8.950001;;;;;;;13.78;100;95321.89;;;;
2019/08/04 00:16:46;;;;;;;11.35;8.950001;;;;;;;13.78;100;95321.89;;;;
2019/08/04 00:17:47;;;;;;;11.35;8.950001;;;;;;;13.78;100;95321.89;;;;
2019/08/04 00:18:49;;;;;;;11.35;8.950001;;;;;;;13.78;100;95321.89;;;;
2019/08/04 00:19:50;;;;;;;11.35;8.950001;;;;;;;13.78;100;95321.89;;;;
2019/08/04 00:20:51;;;;;;;11.35;8.950001;;;;;;;13.78;100;95321.89;;;;
2019/08/04 00:21:52;;;;;;;11.35;8.950001;;;;;;;13.78;100;95321.89;;;;
2019/08/04 00:22:53;;;;;;;9.65;8.65;;;;;;;13.75;100;95314.68;;;;
2019/08/04 00:23:54;;;;;;;9.65;8.65;;;;;;;13.75;100;95314.68;;;;
2019/08/04 00:24:56;;;;;;;9.65;8.65;;;;;;;13.75;100;95314.68;;;;
2019/08/04 00:25:57;;;;;;;9.65;8.65;;;;;;;13.75;100;95314.68;;;;
2019/08/04 00:26:58;;;;;;;9.65;8.65;;;;;;;13.75;100;95314.68;;;;
2019/08/04 00:27:59;;;;;;;9.65;8.65;;;;;;;13.75;100;95314.68;;;;
2019/08/04 00:29:00;;;;;;;9.65;8.65;;;;;;;13.75;100;95314.68;;;;
2019/08/04 00:30:01;;;;;;;9.65;8.65;;;;;;;13.75;100;95314.68;;;;
2019/08/04 00:31:04;;;;;;;9.65;8.65;;;;;;;13.75;100;95314.68;;;;
2019/08/04 00:32:06;;;;;;;9.65;8.65;;;;;;;13.75;100;95314.68;;;;
2019/08/04 00:33:07;;;;;;;9.450001;8.45;;;;;;;13.65;100;95319.59;;;;
2019/08/04 00:34:08;;;;;;;9.450001;8.45;;;;;;;13.65;100;95319.59;;;;
2019/08/04 00:35:10;;;;;;;9.450001;8.45;;;;;;;13.65;100;95319.59;;;;
2019/08/04 00:36:12;;;;;;;9.450001;8.45;;;;;;;13.65;100;95319.59;;;;
2019/08/04 00:37:13;;;;;;;9.450001;8.45;;;;;;;13.65;100;95319.59;;;;
2019/08/04 00:38:15;;;;;;;9.450001;8.45;;;;;;;13.65;100;95319.59;;;;
2019/08/04 00:39:16;;;;;;;9.450001;8.45;;;;;;;13.65;100;95319.59;;;;
2019/08/04 00:40:17;;;;;;;9.450001;8.45;;;;;;;13.65;100;95319.59;;;;
2019/08/04 00:41:23;;;;;;;9.450001;8.45;;;;;;;13.65;100;95319.59;;;;
2019/08/04 00:42:24;;;;;;;9.450001;8.45;;;;;;;13.65;100;95319.59;;;;
2019/08/04 00:43:26;;;;;;;9.450001;8.45;;;;;;;13.65;100;95319.59;;;;
2019/08/04 00:44:27;;;;;;;9.000002;8.200002;;;;;;;13.57;100;95321.37;;;;
2019/08/04 00:45:28;;;;;;;9.000002;8.200002;;;;;;;13.57;100;95321.37;;;;
2019/08/04 00:46:30;;;;;;;9.000002;8.200002;;;;;;;13.57;100;95321.37;;;;
2019/08/04 00:47:31;;;;;;;9.000002;8.200002;;;;;;;13.57;100;95321.37;;;;
2019/08/04 00:48:32;;;;;;;9.000002;8.200002;;;;;;;13.57;100;95321.37;;;;
2019/08/04 00:49:33;;;;;;;9.000002;8.200002;;;;;;;13.57;100;95321.37;;;;
2019/08/04 00:50:34;;;;;;;9.000002;8.200002;;;;;;;13.57;100;95321.37;;;;
2019/08/04 00:51:36;;;;;;;9.000002;8.200002;;;;;;;13.57;100;95321.37;;;;
2019/08/04 00:52:37;;;;;;;9.000002;8.200002;;;;;;;13.57;100;95321.37;;;;
2019/08/04 00:53:38;;;;;;;9.000002;8.200002;;;;;;;13.57;100;95321.37;;;;
2019/08/04 00:54:39;;;;;;;9.15;8.25;;;;;;;13.42;100;95320.79;;;;
2019/08/04 00:55:40;;;;;;;9.15;8.25;;;;;;;13.42;100;95320.79;;;;
2019/08/04 00:56:41;;;;;;;9.15;8.25;;;;;;;13.42;100;95320.79;;;;
2019/08/04 00:57:43;;;;;;;9.15;8.25;;;;;;;13.42;100;95320.79;;;;
2019/08/04 00:58:44;;;;;;;9.15;8.25;;;;;;;13.42;100;95320.79;;;;
2019/08/04 00:59:45;;;;;;;9.15;8.25;;;;;;;13.42;100;95320.79;;;;
2019/08/04 01:00:46;;;;;;;9.15;8.25;;;;;;;13.42;100;95320.79;;;;
2019/08/04 01:02:18;;;;;;;9.15;8.25;;;;;;;13.42;100;95320.79;;;;
2019/08/04 01:03:20;;;;;;;9.15;8.25;;;;;;;13.42;100;95320.79;;;;
2019/08/04 01:04:21;;;;;;;9.15;8.25;;;;;;;13.42;100;95320.79;;;;
2019/08/04 01:05:22;;;;;;;9.049999;8.149999;;;;;;;13.35;100;95321.52;;;;
2019/08/04 01:06:23;;;;;;;9.049999;8.149999;;;;;;;13.35;100;95321.52;;;;
2019/08/04 01:07:24;;;;;;;9.049999;8.149999;;;;;;;13.35;100;95321.52;;;;
2019/08/04 01:08:26;;;;;;;9.049999;8.149999;;;;;;;13.35;100;95321.52;;;;
2019/08/04 01:09:27;;;;;;;9.049999;8.149999;;;;;;;13.35;100;95321.52;;;;
2019/08/04 01:10:28;;;;;;;9.049999;8.149999;;;;;;;13.35;100;95321.52;;;;
2019/08/04 01:11:30;;;;;;;9.049999;8.149999;;;;;;;13.35;100;95321.52;;;;
2019/08/04 01:12:31;;;;;;;9.049999;8.149999;;;;;;;13.35;100;95321.52;;;;
2019/08/04 01:13:32;;;;;;;9.049999;8.149999;;;;;;;13.35;100;95321.52;;;;
2019/08/04 01:14:36;;;;;;;9.049999;8.149999;;;;;;;13.35;100;95321.52;;;;
2019/08/04 01:15:38;;;;;;;9.3;8.4;;;;;;;13.21;100;95319.7;;;;
2019/08/04 01:16:39;;;;;;;9.3;8.4;;;;;;;13.21;100;95319.7;;;;
2019/08/04 01:17:40;;;;;;;9.3;8.4;;;;;;;13.21;100;95319.7;;;;
2019/08/04 01:18:50;;;;;;;9.3;8.4;;;;;;;13.21;100;95319.7;;;;
2019/08/04 01:20:04;;;;;;;9.3;8.4;;;;;;;13.21;100;95319.7;;;;
2019/08/04 01:21:06;;;;;;;9.3;8.4;;;;;;;13.21;100;95319.7;;;;
2019/08/04 01:22:08;;;;;;;9.3;8.4;;;;;;;13.21;100;95319.7;;;;
2019/08/04 01:23:09;;;;;;;9.3;8.4;;;;;;;13.21;100;95319.7;;;;
2019/08/04 01:24:11;;;;;;;9.3;8.4;;;;;;;13.21;100;95319.7;;;;
2019/08/04 01:25:12;;;;;;;9.3;8.4;;;;;;;13.21;100;95319.7;;;;
2019/08/04 01:26:14;;;;;;;10.15;9.249999;;;;;;;13.12;100;95326.22;;;;
2019/08/04 01:27:15;;;;;;;10.15;9.249999;;;;;;;13.12;100;95326.22;;;;
2019/08/04 01:28:16;;;;;;;10.15;9.249999;;;;;;;13.12;100;95326.22;;;;
2019/08/04 01:29:17;;;;;;;10.15;9.249999;;;;;;;13.12;100;95326.22;;;;
2019/08/04 01:30:19;;;;;;;10.15;9.249999;;;;;;;13.12;100;95326.22;;;;
2019/08/04 01:31:25;;;;;;;10.15;9.249999;;;;;;;13.12;100;95326.22;;;;
2019/08/04 01:32:26;;;;;;;10.15;9.249999;;;;;;;13.12;100;95326.22;;;;
2019/08/04 01:33:27;;;;;;;10.15;9.249999;;;;;;;13.12;100;95326.22;;;;
2019/08/04 01:34:29;;;;;;;10.15;9.249999;;;;;;;13.12;100;95326.22;;;;
2019/08/04 01:35:30;;;;;;;10.15;9.249999;;;;;;;13.12;100;95326.22;;;;
2019/08/04 01:36:31;;;;;;;9.699999;8.799999;;;;;;;13.03;100;95330.42;;;;
2019/08/04 01:37:32;;;;;;;9.699999;8.799999;;;;;;;13.03;100;95330.42;;;;
2019/08/04 01:38:33;;;;;;;9.699999;8.799999;;;;;;;13.03;100;95330.42;;;;
2019/08/04 01:39:34;;;;;;;9.699999;8.799999;;;;;;;13.03;100;95330.42;;;;
2019/08/04 01:40:36;;;;;;;9.699999;8.799999;;;;;;;13.03;100;95330.42;;;;
2019/08/04 01:41:37;;;;;;;9.699999;8.799999;;;;;;;13.03;100;95330.42;;;;
2019/08/04 01:42:38;;;;;;;9.699999;8.799999;;;;;;;13.03;100;95330.42;;;;
2019/08/04 01:43:39;;;;;;;9.699999;8.799999;;;;;;;13.03;100;95330.42;;;;
2019/08/04 01:44:41;;;;;;;9.699999;8.799999;;;;;;;13.03;100;95330.42;;;;
2019/08/04 01:45:42;;;;;;;9.699999;8.799999;;;;;;;13.03;100;95330.42;;;;
2019/08/04 01:46:43;;;;;;;9.699999;8.799999;;;;;;;13.03;100;95330.42;;;;
2019/08/04 01:47:44;;;;;;;9.950001;9.049999;;;;;;;13.05;100;95325.58;;;;
2019/08/04 01:48:45;;;;;;;9.950001;9.049999;;;;;;;13.05;100;95325.58;;;;
2019/08/04 01:49:46;;;;;;;9.950001;9.049999;;;;;;;13.05;100;95325.58;;;;
2019/08/04 01:50:47;;;;;;;9.950001;9.049999;;;;;;;13.05;100;95325.58;;;;
2019/08/04 01:51:49;;;;;;;9.950001;9.049999;;;;;;;13.05;100;95325.58;;;;
2019/08/04 01:52:50;;;;;;;9.950001;9.049999;;;;;;;13.05;100;95325.58;;;;
2019/08/04 01:53:51;;;;;;;9.950001;9.049999;;;;;;;13.05;100;95325.58;;;;
2019/08/04 01:54:52;;;;;;;9.950001;9.049999;;;;;;;13.05;100;95325.58;;;;
2019/08/04 01:55:54;;;;;;;9.950001;9.049999;;;;;;;13.05;100;95325.58;;;;
2019/08/04 01:56:55;;;;;;;9.950001;9.049999;;;;;;;13.05;100;95325.58;;;;
2019/08/04 01:57:56;;;;;;;11.1;10.05;;;;;;;12.99;100;95327.78;;;;
2019/08/04 01:58:57;;;;;;;11.1;10.05;;;;;;;12.99;100;95327.78;;;;
2019/08/04 01:59:58;;;;;;;11.1;10.05;;;;;;;12.99;100;95327.78;;;;
2019/08/04 02:01:00;;;;;;;11.1;10.05;;;;;;;12.99;100;95327.78;;;;
2019/08/04 02:02:01;;;;;;;11.1;10.05;;;;;;;12.99;100;95327.78;;;;
2019/08/04 02:03:02;;;;;;;11.1;10.05;;;;;;;12.99;100;95327.78;;;;
2019/08/04 02:04:04;;;;;;;11.1;10.05;;;;;;;12.99;100;95327.78;;;;
2019/08/04 02:05:05;;;;;;;11.1;10.05;;;;;;;12.99;100;95327.78;;;;
2019/08/04 02:06:07;;;;;;;11.1;10.05;;;;;;;12.99;100;95327.78;;;;
2019/08/04 02:07:08;;;;;;;11.1;10.05;;;;;;;12.99;100;95327.78;;;;
2019/08/04 02:08:09;;;;;;;11.1;10.05;;;;;;;12.99;100;95327.78;;;;
2019/08/04 02:09:11;;;;;;;12.25;10.85;;;;;;;13;100;95326.31;;;;
2019/08/04 02:10:12;;;;;;;12.25;10.85;;;;;;;13;100;95326.31;;;;
2019/08/04 02:11:14;;;;;;;12.25;10.85;;;;;;;13;100;95326.31;;;;
2019/08/04 02:12:15;;;;;;;12.25;10.85;;;;;;;13;100;95326.31;;;;
2019/08/04 02:13:16;;;;;;;12.25;10.85;;;;;;;13;100;95326.31;;;;
2019/08/04 02:14:17;;;;;;;12.25;10.85;;;;;;;13;100;95326.31;;;;
2019/08/04 02:15:18;;;;;;;12.25;10.85;;;;;;;13;100;95326.31;;;;
2019/08/04 02:16:21;;;;;;;12.25;10.85;;;;;;;13;100;95326.31;;;;
2019/08/04 02:17:22;;;;;;;12.25;10.85;;;;;;;13;100;95326.31;;;;
2019/08/04 02:18:23;;;;;;;12.25;10.85;;;;;;;13;100;95326.31;;;;
2019/08/04 02:19:24;;;;;;;12.6;11.05;;;;;;;12.92;100;95321.31;;;;
2019/08/04 02:20:25;;;;;;;12.6;11.05;;;;;;;12.92;100;95321.31;;;;
2019/08/04 02:21:33;;;;;;;12.6;11.05;;;;;;;12.92;100;95321.31;;;;
2019/08/04 02:22:34;;;;;;;12.6;11.05;;;;;;;12.92;100;95321.31;;;;
2019/08/04 02:23:35;;;;;;;12.6;11.05;;;;;;;12.92;100;95321.31;;;;
2019/08/04 02:24:37;;;;;;;12.6;11.05;;;;;;;12.92;100;95321.31;;;;
2019/08/04 02:25:38;;;;;;;12.6;11.05;;;;;;;12.92;100;95321.31;;;;
2019/08/04 02:26:39;;;;;;;12.6;11.05;;;;;;;12.92;100;95321.31;;;;
2019/08/04 02:27:40;;;;;;;12.6;11.05;;;;;;;12.92;100;95321.31;;;;
2019/08/04 02:28:41;;;;;;;12.6;11.05;;;;;;;12.92;100;95321.31;;;;
2019/08/04 02:29:42;;;;;;;12.55;11.35;;;;;;;12.87;100;95318.94;;;;
2019/08/04 02:30:43;;;;;;;12.55;11.35;;;;;;;12.87;100;95318.94;;;;
2019/08/04 02:31:45;;;;;;;12.55;11.35;;;;;;;12.87;100;95318.94;;;;
2019/08/04 02:32:46;;;;;;;12.55;11.35;;;;;;;12.87;100;95318.94;;;;
2019/08/04 02:33:48;;;;;;;12.55;11.35;;;;;;;12.87;100;95318.94;;;;
2019/08/04 02:34:49;;;;;;;12.55;11.35;;;;;;;12.87;100;95318.94;;;;
2019/08/04 02:35:50;;;;;;;12.55;11.35;;;;;;;12.87;100;95318.94;;;;
2019/08/04 02:36:52;;;;;;;12.55;11.35;;;;;;;12.87;100;95318.94;;;;
2019/08/04 02:37:53;;;;;;;12.55;11.35;;;;;;;12.87;100;95318.94;;;;
2019/08/04 02:38:54;;;;;;;12.55;11.35;;;;;;;12.87;100;95318.94;;;;
2019/08/04 02:39:55;;;;;;;12.55;11.35;;;;;;;12.87;100;95318.94;;;;
2019/08/04 02:40:57;;;;;;;12.55;11.25;;;;;;;12.79;100;95319.9;;;;
2019/08/04 02:41:58;;;;;;;12.55;11.25;;;;;;;12.79;100;95319.9;;;;
2019/08/04 02:42:59;;;;;;;12.55;11.25;;;;;;;12.79;100;95319.9;;;;
2019/08/04 02:44:06;;;;;;;12.55;11.25;;;;;;;12.79;100;95319.9;;;;
2019/08/04 02:50:16;;;;;;;12.55;11.25;;;;;;;12.79;100;95319.9;;;;
2019/08/04 02:51:19;;;;;;;12.6;11.3;;;;;;;12.8;100;95319.65;;;;
2019/08/04 02:52:28;;;;;;;12.6;11.3;;;;;;;12.8;100;95319.65;;;;
2019/08/04 02:53:29;;;;;;;12.6;11.3;;;;;;;12.8;100;95319.65;;;;
2019/08/04 02:54:30;;;;;;;12.6;11.3;;;;;;;12.8;100;95319.65;;;;
2019/08/04 02:55:31;;;;;;;12.6;11.3;;;;;;;12.8;100;95319.65;;;;
2019/08/04 02:56:32;;;;;;;12.6;11.3;;;;;;;12.8;100;95319.65;;;;
2019/08/04 02:57:33;;;;;;;12.6;11.3;;;;;;;12.8;100;95319.65;;;;
2019/08/04 02:58:35;;;;;;;12.6;11.3;;;;;;;12.8;100;95319.65;;;;
2019/08/04 02:59:36;;;;;;;12.6;11.3;;;;;;;12.8;100;95319.65;;;;
2019/08/04 03:00:37;;;;;;;12.6;11.3;;;;;;;12.8;100;95319.65;;;;
2019/08/04 03:01:38;;;;;;;13.35;12.05;;;;;;;12.71;100;95318.02;;;;
2019/08/04 03:02:39;;;;;;;13.35;12.05;;;;;;;12.71;100;95318.02;;;;
2019/08/04 03:03:40;;;;;;;13.35;12.05;;;;;;;12.71;100;95318.02;;;;
2019/08/04 03:04:42;;;;;;;13.35;12.05;;;;;;;12.71;100;95318.02;;;;
2019/08/04 03:05:43;;;;;;;13.35;12.05;;;;;;;12.71;100;95318.02;;;;
2019/08/04 03:06:44;;;;;;;13.35;12.05;;;;;;;12.71;100;95318.02;;;;
2019/08/04 03:07:45;;;;;;;13.35;12.05;;;;;;;12.71;100;95318.02;;;;
2019/08/04 03:08:46;;;;;;;13.35;12.05;;;;;;;12.71;100;95318.02;;;;
2019/08/04 03:09:47;;;;;;;13.35;12.05;;;;;;;12.71;100;95318.02;;;;
2019/08/04 03:10:48;;;;;;;13.35;12.05;;;;;;;12.71;100;95318.02;;;;
2019/08/04 03:11:50;;;;;;;13.35;12.05;;;;;;;12.71;100;95318.02;;;;
2019/08/04 03:12:51;;;;;;;13.95;12.05;;;;;;;12.71;100;95307.18;;;;
2019/08/04 03:13:52;;;;;;;13.95;12.05;;;;;;;12.71;100;95307.18;;;;
2019/08/04 03:14:53;;;;;;;13.95;12.05;;;;;;;12.71;100;95307.18;;;;
2019/08/04 03:15:54;;;;;;;13.95;12.05;;;;;;;12.71;100;95307.18;;;;
2019/08/04 03:16:55;;;;;;;13.95;12.05;;;;;;;12.71;100;95307.18;;;;
2019/08/04 03:17:56;;;;;;;13.95;12.05;;;;;;;12.71;100;95307.18;;;;
2019/08/04 03:18:57;;;;;;;13.95;12.05;;;;;;;12.71;100;95307.18;;;;
2019/08/04 03:19:59;;;;;;;13.95;12.05;;;;;;;12.71;100;95307.18;;;;
2019/08/04 03:21:00;;;;;;;13.95;12.05;;;;;;;12.71;100;95307.18;;;;
2019/08/04 03:22:01;;;;;;;13.95;12.05;;;;;;;12.71;100;95307.18;;;;
2019/08/04 03:23:02;;;;;;;13.55;12.15;;;;;;;12.63;100;95304.35;;;;
2019/08/04 03:24:03;;;;;;;13.55;12.15;;;;;;;12.63;100;95304.35;;;;
2019/08/04 03:25:05;;;;;;;13.55;12.15;;;;;;;12.63;100;95304.35;;;;
2019/08/04 03:26:07;;;;;;;13.55;12.15;;;;;;;12.63;100;95304.35;;;;
2019/08/04 03:27:08;;;;;;;13.55;12.15;;;;;;;12.63;100;95304.35;;;;
2019/08/04 03:28:09;;;;;;;13.55;12.15;;;;;;;12.63;100;95304.35;;;;
2019/08/04 03:29:10;;;;;;;13.55;12.15;;;;;;;12.63;100;95304.35;;;;
2019/08/04 03:30:12;;;;;;;13.55;12.15;;;;;;;12.63;100;95304.35;;;;
2019/08/04 03:31:13;;;;;;;13.55;12.15;;;;;;;12.63;100;95304.35;;;;
2019/08/04 03:32:14;;;;;;;13.55;12.15;;;;;;;12.63;100;95304.35;;;;
2019/08/04 03:33:15;;;;;;;13.35;12;;;;;;;12.59;100;95316.33;;;;
2019/08/04 03:34:17;;;;;;;13.35;12;;;;;;;12.59;100;95316.33;;;;
2019/08/04 03:35:18;;;;;;;13.35;12;;;;;;;12.59;100;95316.33;;;;
2019/08/04 03:36:19;;;;;;;13.35;12;;;;;;;12.59;100;95316.33;;;;
2019/08/04 03:37:20;;;;;;;13.35;12;;;;;;;12.59;100;95316.33;;;;
2019/08/04 03:38:21;;;;;;;13.35;12;;;;;;;12.59;100;95316.33;;;;
2019/08/04 03:39:22;;;;;;;13.35;12;;;;;;;12.59;100;95316.33;;;;
2019/08/04 03:40:23;;;;;;;13.35;12;;;;;;;12.59;100;95316.33;;;;
2019/08/04 03:41:25;;;;;;;13.35;12;;;;;;;12.59;100;95316.33;;;;
2019/08/04 03:42:28;;;;;;;13.35;12;;;;;;;12.59;100;95316.33;;;;
2019/08/04 03:43:34;;;;;;;13.35;12;;;;;;;12.59;100;95316.33;;;;
2019/08/04 03:44:43;;;;;;;14.35;12.85;;;;;;;12.52;100;95311.61;;;;
2019/08/04 03:45:44;;;;;;;14.35;12.85;;;;;;;12.52;100;95311.61;;;;
2019/08/04 03:46:50;;;;;;;14.35;12.85;;;;;;;12.52;100;95311.61;;;;
2019/08/04 03:47:56;;;;;;;14.35;12.85;;;;;;;12.52;100;95311.61;;;;
2019/08/04 03:48:59;;;;;;;14.35;12.85;;;;;;;12.52;100;95311.61;;;;
2019/08/04 03:50:02;;;;;;;14.35;12.85;;;;;;;12.52;100;95311.61;;;;
2019/08/04 03:51:07;;;;;;;14.35;12.85;;;;;;;12.52;100;95311.61;;;;
2019/08/04 03:52:43;;;;;;;14.35;12.85;;;;;;;12.52;100;95311.61;;;;
2019/08/04 03:53:45;;;;;;;14.35;12.85;;;;;;;12.52;100;95311.61;;;;
2019/08/04 03:54:46;;;;;;;14.15;12.55;;;;;;;12.51;100;95318.64;;;;
2019/08/04 03:55:47;;;;;;;14.15;12.55;;;;;;;12.51;100;95318.64;;;;
2019/08/04 03:56:48;;;;;;;14.15;12.55;;;;;;;12.51;100;95318.64;;;;
2019/08/04 03:57:49;;;;;;;14.15;12.55;;;;;;;12.51;100;95318.64;;;;
2019/08/04 03:58:50;;;;;;;14.15;12.55;;;;;;;12.51;100;95318.64;;;;
2019/08/04 03:59:51;;;;;;;14.15;12.55;;;;;;;12.51;100;95318.64;;;;
2019/08/04 04:00:52;;;;;;;14.15;12.55;;;;;;;12.51;100;95318.64;;;;
2019/08/04 04:01:54;;;;;;;14.15;12.55;;;;;;;12.51;100;95318.64;;;;
2019/08/04 04:02:55;;;;;;;14.15;12.55;;;;;;;12.51;100;95318.64;;;;
2019/08/04 04:03:56;;;;;;;14.15;12.55;;;;;;;12.51;100;95318.64;;;;
2019/08/04 04:04:57;;;;;;;12.9;11.55;;;;;;;12.43;100;95323.13;;;;
2019/08/04 04:05:58;;;;;;;12.9;11.55;;;;;;;12.43;100;95323.13;;;;
2019/08/04 04:06:59;;;;;;;12.9;11.55;;;;;;;12.43;100;95323.13;;;;
2019/08/04 04:08:00;;;;;;;12.9;11.55;;;;;;;12.43;100;95323.13;;;;
2019/08/04 04:09:02;;;;;;;12.9;11.55;;;;;;;12.43;100;95323.13;;;;
2019/08/04 04:10:06;;;;;;;12.9;11.55;;;;;;;12.43;100;95323.13;;;;
2019/08/04 04:11:08;;;;;;;12.9;11.55;;;;;;;12.43;100;95323.13;;;;
2019/08/04 04:12:09;;;;;;;12.9;11.55;;;;;;;12.43;100;95323.13;;;;
2019/08/04 04:13:10;;;;;;;12.9;11.55;;;;;;;12.43;100;95323.13;;;;
2019/08/04 04:14:12;;;;;;;12.9;11.55;;;;;;;12.43;100;95323.13;;;;
2019/08/04 04:15:13;;;;;;;12.9;11.55;;;;;;;12.43;100;95323.13;;;;
2019/08/04 04:16:17;;;;;;;13.15;11.85;;;;;;;12.41;100;95320.64;;;;
2019/08/04 04:17:18;;;;;;;13.15;11.85;;;;;;;12.41;100;95320.64;;;;
2019/08/04 04:18:20;;;;;;;13.15;11.85;;;;;;;12.41;100;95320.64;;;;
2019/08/04 04:19:21;;;;;;;13.15;11.85;;;;;;;12.41;100;95320.64;;;;
2019/08/04 04:20:22;;;;;;;13.15;11.85;;;;;;;12.41;100;95320.64;;;;
2019/08/04 04:21:23;;;;;;;13.15;11.85;;;;;;;12.41;100;95320.64;;;;
2019/08/04 04:22:24;;;;;;;13.15;11.85;;;;;;;12.41;100;95320.64;;;;
2019/08/04 04:23:25;;;;;;;13.15;11.85;;;;;;;12.41;100;95320.64;;;;
2019/08/04 04:24:26;;;;;;;13.15;11.85;;;;;;;12.41;100;95320.64;;;;
2019/08/04 04:25:27;;;;;;;13.15;11.85;;;;;;;12.41;100;95320.64;;;;
2019/08/04 04:26:29;;;;;;;13.9;12.4;;;;;;;12.37;100;95320.87;;;;
2019/08/04 04:27:30;;;;;;;13.9;12.4;;;;;;;12.37;100;95320.87;;;;
2019/08/04 04:28:31;;;;;;;13.9;12.4;;;;;;;12.37;100;95320.87;;;;
2019/08/04 04:29:32;;;;;;;13.9;12.4;;;;;;;12.37;100;95320.87;;;;
2019/08/04 04:30:33;;;;;;;13.9;12.4;;;;;;;12.37;100;95320.87;;;;
2019/08/04 04:31:45;;;;;;;13.9;12.4;;;;;;;12.37;100;95320.87;;;;
2019/08/04 04:32:46;;;;;;;13.9;12.4;;;;;;;12.37;100;95320.87;;;;
2019/08/04 04:33:47;;;;;;;13.9;12.4;;;;;;;12.37;100;95320.87;;;;
2019/08/04 04:34:48;;;;;;;13.9;12.4;;;;;;;12.37;100;95320.87;;;;
2019/08/04 04:35:49;;;;;;;13.9;12.4;;;;;;;12.37;100;95320.87;;;;
2019/08/04 04:36:51;;;;;;;13.65;12.25;;;;;;;12.45;100;95329.92;;;;
2019/08/04 04:37:52;;;;;;;13.65;12.25;;;;;;;12.45;100;95329.92;;;;
2019/08/04 04:38:53;;;;;;;13.65;12.25;;;;;;;12.45;100;95329.92;;;;
2019/08/04 04:39:54;;;;;;;13.65;12.25;;;;;;;12.45;100;95329.92;;;;
2019/08/04 04:40:55;;;;;;;13.65;12.25;;;;;;;12.45;100;95329.92;;;;
2019/08/04 04:41:56;;;;;;;13.65;12.25;;;;;;;12.45;100;95329.92;;;;
2019/08/04 04:42:57;;;;;;;13.65;12.25;;;;;;;12.45;100;95329.92;;;;
2019/08/04 04:43:59;;;;;;;13.65;12.25;;;;;;;12.45;100;95329.92;;;;
2019/08/04 04:45:00;;;;;;;13.65;12.25;;;;;;;12.45;100;95329.92;;;;
2019/08/04 04:46:01;;;;;;;13.65;12.25;;;;;;;12.45;100;95329.92;;;;
2019/08/04 04:47:02;;;;;;;13.65;12.25;;;;;;;12.45;100;95329.92;;;;
2019/08/04 04:48:03;;;;;;;12.9;11.55;;;;;;;12.53;100;95332.76;;;;
2019/08/04 04:49:04;;;;;;;12.9;11.55;;;;;;;12.53;100;95332.76;;;;
2019/08/04 04:50:05;;;;;;;12.9;11.55;;;;;;;12.53;100;95332.76;;;;
2019/08/04 04:51:07;;;;;;;12.9;11.55;;;;;;;12.53;100;95332.76;;;;
2019/08/04 04:52:09;;;;;;;12.9;11.55;;;;;;;12.53;100;95332.76;;;;
2019/08/04 04:53:10;;;;;;;12.9;11.55;;;;;;;12.53;100;95332.76;;;;
2019/08/04 04:54:11;;;;;;;12.9;11.55;;;;;;;12.53;100;95332.76;;;;
2019/08/04 04:55:12;;;;;;;12.9;11.55;;;;;;;12.53;100;95332.76;;;;
2019/08/04 04:56:14;;;;;;;12.9;11.55;;;;;;;12.53;100;95332.76;;;;
2019/08/04 04:57:15;;;;;;;12.9;11.55;;;;;;;12.53;100;95332.76;;;;
2019/08/04 04:58:16;;;;;;;13.5;12.1;;;;;;;12.8;100;95327.37;;;;
2019/08/04 04:59:17;;;;;;;13.5;12.1;;;;;;;12.8;100;95327.37;;;;
2019/08/04 05:00:18;;;;;;;13.5;12.1;;;;;;;12.8;100;95327.37;;;;
2019/08/04 05:01:38;;;;;;;13.5;12.1;;;;;;;12.8;100;95327.37;;;;
2019/08/04 05:02:39;;;;;;;13.5;12.1;;;;;;;12.8;100;95327.37;;;;
2019/08/04 05:03:40;;;;;;;13.5;12.1;;;;;;;12.8;100;95327.37;;;;
2019/08/04 05:04:41;;;;;;;13.5;12.1;;;;;;;12.8;100;95327.37;;;;
2019/08/04 05:05:42;;;;;;;13.5;12.1;;;;;;;12.8;100;95327.37;;;;
2019/08/04 05:06:44;;;;;;;13.5;12.1;;;;;;;12.8;100;95327.37;;;;
2019/08/04 05:07:45;;;;;;;13.5;12.1;;;;;;;12.8;100;95327.37;;;;
2019/08/04 05:08:46;;;;;;;13.25;11.95;;;;;;;13.07;100;95334.7;;;;
2019/08/04 05:09:47;;;;;;;13.25;11.95;;;;;;;13.07;100;95334.7;;;;
2019/08/04 05:10:48;;;;;;;13.25;11.95;;;;;;;13.07;100;95334.7;;;;
2019/08/04 05:11:50;;;;;;;13.25;11.95;;;;;;;13.07;100;95334.7;;;;
2019/08/04 05:12:51;;;;;;;13.25;11.95;;;;;;;13.07;100;95334.7;;;;
2019/08/04 05:13:52;;;;;;;13.25;11.95;;;;;;;13.07;100;95334.7;;;;
2019/08/04 05:14:53;;;;;;;13.25;11.95;;;;;;;13.07;100;95334.7;;;;
2019/08/04 05:15:54;;;;;;;13.25;11.95;;;;;;;13.07;100;95334.7;;;;
2019/08/04 05:16:56;;;;;;;13.25;11.95;;;;;;;13.07;100;95334.7;;;;
2019/08/04 05:17:57;;;;;;;13.25;11.95;;;;;;;13.07;100;95334.7;;;;
2019/08/04 05:18:58;;;;;;;13.25;11.95;;;;;;;13.07;100;95334.7;;;;
2019/08/04 05:19:59;;;;;;;12.3;11.2;;;;;;;13.43;100;95339.94;;;;
2019/08/04 05:21:00;;;;;;;12.3;11.2;;;;;;;13.43;100;95339.94;;;;
2019/08/04 05:22:01;;;;;;;12.3;11.2;;;;;;;13.43;100;95339.94;;;;
2019/08/04 05:23:03;;;;;;;12.3;11.2;;;;;;;13.43;100;95339.94;;;;
2019/08/04 05:24:05;;;;;;;12.3;11.2;;;;;;;13.43;100;95339.94;;;;
2019/08/04 05:25:06;;;;;;;12.3;11.2;;;;;;;13.43;100;95339.94;;;;
2019/08/04 05:26:08;;;;;;;12.3;11.2;;;;;;;13.43;100;95339.94;;;;
2019/08/04 05:27:09;;;;;;;12.3;11.2;;;;;;;13.43;100;95339.94;;;;
2019/08/04 05:28:10;;;;;;;12.3;11.2;;;;;;;13.43;100;95339.94;;;;
2019/08/04 05:29:11;;;;;;;12.3;11.2;;;;;;;13.43;100;95339.94;;;;
2019/08/04 05:30:12;;;;;;;10.95;9.85;;;;;;;13.78;100;95343.22;;;;
2019/08/04 05:31:15;;;;;;;10.95;9.85;;;;;;;13.78;100;95343.22;;;;
2019/08/04 05:32:17;;;;;;;10.95;9.85;;;;;;;13.78;100;95343.22;;;;
2019/08/04 05:33:18;;;;;;;10.95;9.85;;;;;;;13.78;100;95343.22;;;;
2019/08/04 05:34:20;;;;;;;10.95;9.85;;;;;;;13.78;100;95343.22;;;;
2019/08/04 05:35:21;;;;;;;10.95;9.85;;;;;;;13.78;100;95343.22;;;;
2019/08/04 05:36:22;;;;;;;10.95;9.85;;;;;;;13.78;100;95343.22;;;;
2019/08/04 05:37:23;;;;;;;10.95;9.85;;;;;;;13.78;100;95343.22;;;;
2019/08/04 05:38:24;;;;;;;10.95;9.85;;;;;;;13.78;100;95343.22;;;;
2019/08/04 05:39:26;;;;;;;10.95;9.85;;;;;;;13.78;100;95343.22;;;;
2019/08/04 05:40:27;;;;;;;10.6;9.6;;;;;;;14.26;100;95347.71;;;;
2019/08/04 05:41:28;;;;;;;10.6;9.6;;;;;;;14.26;100;95347.71;;;;
2019/08/04 05:42:29;;;;;;;10.6;9.6;;;;;;;14.26;100;95347.71;;;;
2019/08/04 05:43:30;;;;;;;10.6;9.6;;;;;;;14.26;100;95347.71;;;;
2019/08/04 05:44:31;;;;;;;10.6;9.6;;;;;;;14.26;100;95347.71;;;;
2019/08/04 05:45:32;;;;;;;10.6;9.6;;;;;;;14.26;100;95347.71;;;;
2019/08/04 05:46:34;;;;;;;10.6;9.6;;;;;;;14.26;100;95347.71;;;;
2019/08/04 05:47:35;;;;;;;10.6;9.6;;;;;;;14.26;100;95347.71;;;;
2019/08/04 05:48:36;;;;;;;10.6;9.6;;;;;;;14.26;100;95347.71;;;;
2019/08/04 05:49:37;;;;;;;10.6;9.6;;;;;;;14.26;100;95347.71;;;;
2019/08/04 05:50:38;;;;;;;10.6;9.6;;;;;;;14.26;100;95347.71;;;;
2019/08/04 05:51:40;;;;;;;10.65;9.599999;;;;;;;14.71;100;95346.33;;;;
2019/08/04 05:52:41;;;;;;;10.65;9.599999;;;;;;;14.71;100;95346.33;;;;
2019/08/04 05:53:42;;;;;;;10.65;9.599999;;;;;;;14.71;100;95346.33;;;;
2019/08/04 05:54:43;;;;;;;10.65;9.599999;;;;;;;14.71;100;95346.33;;;;
2019/08/04 05:55:44;;;;;;;10.65;9.599999;;;;;;;14.71;100;95346.33;;;;
2019/08/04 05:56:45;;;;;;;10.65;9.599999;;;;;;;14.71;100;95346.33;;;;
2019/08/04 05:57:46;;;;;;;10.65;9.599999;;;;;;;14.71;100;95346.33;;;;
2019/08/04 05:58:48;;;;;;;10.65;9.599999;;;;;;;14.71;100;95346.33;;;;
2019/08/04 05:59:50;;;;;;;10.65;9.599999;;;;;;;14.71;100;95346.33;;;;
2019/08/04 06:01:36;;;;;;;10.65;9.599999;;;;;;;14.71;100;95346.33;;;;
2019/08/04 06:02:38;;;;;;;9.849999;8.950001;;;;;;;15.27;100;95350.78;;;;
2019/08/04 06:03:39;;;;;;;9.849999;8.950001;;;;;;;15.27;100;95350.78;;;;
2019/08/04 06:04:40;;;;;;;9.849999;8.950001;;;;;;;15.27;100;95350.78;;;;
2019/08/04 06:05:42;;;;;;;9.849999;8.950001;;;;;;;15.27;100;95350.78;;;;
2019/08/04 06:06:43;;;;;;;9.849999;8.950001;;;;;;;15.27;100;95350.78;;;;
2019/08/04 06:07:44;;;;;;;9.849999;8.950001;;;;;;;15.27;100;95350.78;;;;
2019/08/04 06:08:45;;;;;;;9.849999;8.950001;;;;;;;15.27;100;95350.78;;;;